Impacts TAF Board
For situational awareness. Not to be used for flight planning purposes.
IDs:

KMIA - Miami Intl, FL, US

Issued at 1726 UTC 19 Jan 2019
Updated at 2051 UTC 19 Jan 2019
Potential Impact None Slight Moderate High
Time1953Z 19/21Z 19/22Z 19/23Z 20/00Z 20/01Z 20/02Z 20/03Z 20/04Z 20/05Z 20/06Z 20/07Z 20/08Z 20/09Z>>
Type OBS PRVL PRVL PRVL PRVL PRVL PRVL PRVL PRVL PRVL PRVL PRVL PRVL PRVL
VIS 10 >6 >6 >6 >6 >6 >6 >6 >6 >6 >6 >6 >6 >6
CIG 250 150 150 150 150 150 150 150 150 150 150 -- -- --
Cover OVC BKN BKN BKN BKN BKN BKN BKN BKN BKN BKN SCT SCT SCT
FltCat VFR VFR VFR VFR VFR VFR VFR VFR VFR VFR VFR VFR VFR VFR
WX -- -- -- -- -- -- -- -- -- -- -- -- -- --
WDir 130 150 150 150 150 150 150 150 150 150 150 170 170 170
WSpd 11 12 12 12 12 12 12 12 12 12 12 5 5 5
WGst 22 -- -- -- -- -- -- -- -- -- -- -- -- --
Raw TAF
KMIA 191726Z 1918/2024 15012KT P6SM SCT040 BKN150
  FM200700 17005KT P6SM SCT035 SCT200
  FM201100 21008KT P6SM VCSH SCT035 BKN150
  FM201500 26012KT P6SM VCSH SCT035 OVC050
  FM201900 28014KT P6SM SCT040


Raw METAR
KMIA 191953Z 13011G22KT 10SM FEW035 OVC250 24/16 A3000 RMK AO2 SLP159 T02440156
KMIA 191853Z 14012KT 10SM SCT035 OVC250 25/15 A3002 RMK AO2 SLP165 T02500150
KMIA 191753Z 16012KT 10SM SCT035 BKN250 25/17 A3004 RMK AO2 SLP171 T02500167 10256 20167 58016

METAR Board
Radar Display
Forecast Discussion
For situational awareness. Not to be used for flight planning purposes.